createdAt,value
2022-11-05T00:00:39.170Z,20.77
2022-11-05T00:03:25.359Z,22.70
2022-11-05T00:06:12.148Z,23.02
2022-11-05T00:08:58.743Z,20.92
2022-11-05T00:11:45.144Z,19.83
2022-11-05T00:14:30.209Z,20.10
2022-11-05T00:16:56.648Z,17.60
2022-11-05T00:19:23.032Z,19.00
2022-11-05T00:22:08.082Z,18.40
2022-11-05T00:24:53.076Z,18.50
2022-11-05T00:27:19.472Z,17.73
2022-11-05T00:29:45.972Z,18.05
2022-11-05T00:32:12.342Z,18.98
2022-11-05T00:34:38.728Z,17.80
2022-11-05T00:37:05.171Z,20.55
2022-11-05T00:39:31.554Z,19.15
2022-11-05T00:42:16.339Z,20.95
2022-11-05T00:45:01.008Z,22.23
2022-11-05T00:47:45.893Z,22.33
2022-11-05T00:50:12.289Z,21.88
2022-11-05T00:53:07.984Z,22.25
2022-11-05T00:55:37.939Z,22.55
2022-11-05T00:58:08.063Z,22.52
2022-11-05T01:00:36.594Z,24.47
2022-11-05T01:03:12.144Z,24.45
2022-11-05T01:05:44.765Z,29.20
2022-11-05T01:08:12.254Z,26.50
2022-11-05T01:10:43.063Z,26.92
2022-11-05T01:13:12.948Z,25.60
2022-11-05T01:15:40.649Z,25.23
2022-11-05T01:18:07.044Z,25.08
2022-11-05T01:20:33.512Z,26.88
2022-11-05T01:22:59.928Z,25.17
2022-11-05T01:25:26.347Z,25.88
2022-11-05T01:27:52.755Z,25.75
2022-11-05T01:30:19.757Z,22.80
2022-11-05T01:32:46.225Z,26.00
2022-11-05T01:35:15.202Z,25.23
2022-11-05T01:37:41.661Z,22.85
2022-11-05T01:40:11.131Z,23.45
2022-11-05T01:42:37.625Z,21.85
2022-11-05T01:45:07.244Z,21.33
2022-11-05T01:47:57.777Z,22.02
2022-11-05T01:50:36.323Z,21.92
2022-11-05T01:53:12.932Z,24.30
2022-11-05T01:56:03.625Z,23.60
2022-11-05T01:58:40.489Z,26.15
2022-11-05T02:01:06.936Z,26.95
2022-11-05T02:03:33.482Z,28.48
2022-11-05T02:06:01.096Z,28.58
2022-11-05T02:08:36.876Z,26.00
2022-11-05T02:11:03.373Z,27.13
2022-11-05T02:13:29.736Z,26.58
2022-11-05T02:16:08.493Z,27.60
2022-11-05T02:18:42.381Z,27.05
2022-11-05T02:21:50.983Z,27.13
2022-11-05T02:24:26.826Z,26.60
2022-11-05T02:27:15.250Z,26.23
2022-11-05T02:30:07.038Z,25.63
2022-11-05T02:32:58.857Z,25.95
2022-11-05T02:35:56.146Z,24.80
2022-11-05T02:38:46.206Z,25.98
2022-11-05T02:41:23.086Z,25.13
2022-11-05T02:44:23.284Z,23.77
2022-11-05T02:47:19.214Z,24.95
2022-11-05T02:50:03.955Z,23.88
2022-11-05T02:52:51.299Z,24.08
2022-11-05T02:55:18.300Z,24.45
2022-11-05T02:57:47.852Z,25.60
2022-11-05T03:00:40.282Z,24.27
2022-11-05T03:03:27.874Z,25.95
2022-11-05T03:06:10.236Z,26.20
2022-11-05T03:09:20.006Z,25.70
2022-11-05T03:12:06.312Z,25.77
2022-11-05T03:15:19.771Z,27.27
2022-11-05T03:18:05.742Z,25.92
2022-11-05T03:21:17.359Z,25.85
2022-11-05T03:24:10.916Z,25.45
2022-11-05T03:26:46.839Z,28.10
2022-11-05T03:29:19.431Z,28.98
2022-11-05T03:31:48.359Z,28.65
2022-11-05T03:34:17.391Z,27.63
2022-11-05T03:36:48.548Z,29.52
2022-11-05T03:39:22.963Z,28.38
2022-11-05T03:41:51.310Z,30.50
2022-11-05T03:44:22.241Z,31.10
2022-11-05T03:46:49.789Z,29.63
2022-11-05T03:49:30.809Z,29.30
2022-11-05T03:54:25.618Z,29.30
2022-11-05T03:57:13.958Z,28.80
2022-11-05T03:59:48.740Z,28.88
2022-11-05T04:02:17.135Z,30.50
2022-11-05T04:04:43.825Z,29.90
2022-11-05T04:07:29.828Z,31.23
2022-11-05T04:10:15.400Z,30.50
2022-11-05T04:13:00.311Z,30.45
2022-11-05T04:15:26.985Z,31.58
2022-11-05T04:17:53.841Z,30.67
2022-11-05T04:20:38.944Z,32.65
2022-11-05T04:23:25.437Z,32.47
2022-11-05T04:25:51.880Z,30.88
2022-11-05T04:28:18.975Z,30.77
2022-11-05T04:30:45.594Z,31.77
2022-11-05T04:33:16.427Z,32.35
2022-11-05T04:35:48.060Z,31.35
2022-11-05T04:38:18.959Z,30.88
2022-11-05T04:40:46.355Z,31.95
2022-11-05T04:43:18.238Z,31.15
2022-11-05T04:45:45.516Z,31.33
2022-11-05T04:48:12.192Z,32.83
2022-11-05T04:50:39.317Z,30.85
2022-11-05T04:53:05.734Z,30.65
2022-11-05T04:55:32.113Z,30.23
2022-11-05T04:57:58.587Z,29.33
2022-11-05T05:00:25.539Z,29.92
2022-11-05T05:02:52.299Z,29.27
2022-11-05T05:05:18.743Z,27.85
2022-11-05T05:07:45.581Z,26.73
2022-11-05T05:10:12.875Z,26.98
2022-11-05T05:12:39.254Z,28.38
2022-11-05T05:15:06.342Z,27.15
2022-11-05T05:17:32.814Z,29.15
2022-11-05T05:20:17.559Z,27.15
2022-11-05T05:22:44.052Z,28.10
2022-11-05T05:25:10.430Z,26.45
2022-11-05T05:27:36.828Z,28.83
2022-11-05T05:30:03.913Z,28.10
2022-11-05T05:32:30.354Z,28.48
2022-11-05T05:34:56.820Z,28.83
2022-11-05T05:37:23.274Z,27.95
2022-11-05T05:39:49.770Z,28.08
2022-11-05T05:42:16.358Z,29.30
2022-11-05T05:44:42.750Z,30.40
2022-11-05T05:47:09.157Z,28.13
2022-11-05T05:49:35.693Z,30.38
2022-11-05T05:52:02.408Z,28.65
2022-11-05T05:54:32.688Z,29.10
2022-11-05T05:56:59.995Z,29.17
2022-11-05T05:59:26.403Z,28.73
2022-11-05T06:01:53.319Z,30.45
2022-11-05T06:04:20.646Z,30.83
2022-11-05T06:06:47.255Z,32.53
2022-11-05T06:09:14.545Z,31.45
2022-11-05T06:11:41.313Z,31.63
2022-11-05T06:14:12.305Z,30.90
2022-11-05T06:19:06.736Z,29.23
2022-11-05T06:21:33.217Z,31.20
2022-11-05T06:24:00.989Z,32.55
2022-11-05T06:26:27.526Z,31.10
2022-11-05T06:28:53.910Z,34.70
2022-11-05T06:31:21.103Z,33.50
2022-11-05T06:33:47.641Z,32.80
2022-11-05T06:36:15.667Z,35.65
2022-11-05T06:38:42.121Z,36.97
2022-11-05T06:41:10.519Z,35.42
2022-11-05T06:43:37.726Z,35.35
2022-11-05T06:46:04.272Z,35.88
2022-11-05T06:48:30.728Z,39.35
2022-11-05T06:50:57.117Z,38.42
2022-11-05T06:53:23.498Z,37.38
2022-11-05T06:55:49.889Z,38.67
2022-11-05T06:58:16.368Z,39.63
2022-11-05T07:00:42.749Z,40.75
2022-11-05T07:03:11.102Z,39.13
2022-11-05T07:05:40.571Z,39.17
2022-11-05T07:08:07.228Z,40.45
2022-11-05T07:10:33.850Z,37.17
2022-11-05T07:13:03.766Z,39.83
2022-11-05T07:15:34.080Z,41.00
2022-11-05T07:18:01.442Z,41.08
2022-11-05T07:20:33.213Z,41.47
2022-11-05T07:23:06.711Z,37.92
2022-11-05T07:25:34.120Z,40.67
2022-11-05T07:28:00.933Z,42.42
2022-11-05T07:30:27.886Z,41.50
2022-11-05T07:32:54.575Z,39.92
2022-11-05T07:35:20.981Z,41.05
2022-11-05T07:37:49.575Z,41.33
2022-11-05T07:40:20.766Z,39.72
2022-11-05T07:42:49.186Z,40.88
2022-11-05T07:45:16.167Z,46.65
2022-11-05T07:47:50.288Z,41.95
2022-11-05T07:50:18.406Z,42.33
2022-11-05T07:52:45.176Z,41.40
2022-11-05T07:55:13.179Z,41.47
2022-11-05T07:57:44.265Z,41.35
2022-11-05T08:02:42.522Z,42.00
2022-11-05T08:05:09.588Z,40.05
2022-11-05T08:07:36.045Z,44.30
2022-11-05T08:10:05.553Z,45.15
2022-11-05T08:12:32.624Z,46.25
2022-11-05T08:14:59.130Z,45.47
2022-11-05T08:17:25.671Z,44.35
2022-11-05T08:19:52.074Z,42.97
2022-11-05T08:22:18.464Z,43.00
2022-11-05T08:24:45.027Z,42.72
2022-11-05T08:27:11.426Z,44.13
2022-11-05T08:29:37.846Z,45.63
2022-11-05T08:32:04.272Z,38.95
2022-11-05T08:34:30.674Z,42.13
2022-11-05T08:36:57.057Z,42.67
2022-11-05T08:39:23.453Z,39.00
2022-11-05T08:41:50.495Z,38.00
2022-11-05T08:44:17.305Z,36.08
2022-11-05T08:46:43.702Z,36.15
2022-11-05T08:49:10.233Z,34.22
2022-11-05T08:51:36.667Z,35.33
2022-11-05T08:54:03.082Z,30.67
2022-11-05T08:56:29.514Z,29.25
2022-11-05T08:58:55.962Z,28.52
2022-11-05T09:01:22.483Z,29.85
2022-11-05T09:03:52.402Z,34.28
2022-11-05T09:06:20.296Z,29.75
2022-11-05T09:08:46.832Z,30.38
2022-11-05T09:11:15.594Z,28.30
2022-11-05T09:13:42.302Z,22.50
2022-11-05T09:16:17.979Z,27.23
2022-11-05T09:18:44.403Z,21.38
2022-11-05T09:21:10.946Z,19.73
2022-11-05T09:23:37.348Z,22.13
2022-11-05T09:26:06.062Z,22.48
2022-11-05T09:28:33.100Z,19.75
2022-11-05T09:31:00.614Z,21.63
2022-11-05T09:33:27.033Z,19.63
2022-11-05T09:35:53.723Z,20.20
2022-11-05T09:38:20.265Z,18.63
2022-11-05T09:40:54.928Z,18.95
2022-11-05T09:43:31.274Z,17.38
2022-11-05T09:45:59.841Z,18.05
2022-11-05T09:48:29.399Z,17.25
2022-11-05T09:50:55.880Z,15.70
2022-11-05T09:53:23.342Z,17.60
2022-11-05T09:55:52.669Z,17.27
2022-11-05T09:58:31.096Z,16.55
2022-11-05T10:01:00.968Z,15.15
2022-11-05T10:03:29.532Z,14.77
2022-11-05T10:06:03.445Z,14.43
2022-11-05T10:08:33.735Z,15.18
2022-11-05T10:11:31.851Z,17.92
2022-11-05T10:14:23.450Z,14.68
2022-11-05T10:16:56.445Z,19.00
2022-11-05T10:19:26.367Z,14.02
2022-11-05T10:22:14.091Z,13.35
2022-11-05T10:24:42.921Z,13.20
2022-11-05T10:27:15.786Z,14.52
2022-11-05T10:29:43.410Z,12.43
2022-11-05T10:32:12.523Z,12.13
2022-11-05T10:34:39.351Z,11.73
2022-11-05T10:37:05.764Z,12.20
2022-11-05T10:39:33.399Z,11.23
2022-11-05T10:42:44.503Z,11.07
2022-11-05T10:45:19.988Z,11.68
2022-11-05T10:48:05.341Z,11.77
2022-11-05T10:50:32.247Z,16.83
2022-11-05T10:53:01.426Z,11.13
2022-11-05T10:55:33.456Z,11.35
2022-11-05T10:58:15.129Z,11.68
2022-11-05T11:00:52.961Z,10.90
2022-11-05T11:03:38.446Z,10.70
2022-11-05T11:06:38.250Z,11.18
2022-11-05T11:09:19.718Z,10.98
2022-11-05T11:11:46.756Z,9.35
2022-11-05T11:14:16.392Z,9.48
2022-11-05T11:16:46.469Z,9.23
2022-11-05T11:19:34.451Z,9.77
2022-11-05T11:22:04.742Z,8.77
2022-11-05T11:24:41.241Z,9.82
2022-11-05T11:27:18.138Z,9.32
2022-11-05T11:29:49.855Z,9.52
2022-11-05T11:32:19.269Z,10.20
2022-11-05T11:34:50.604Z,8.50
2022-11-05T11:37:22.109Z,9.43
2022-11-05T11:39:56.932Z,8.73
2022-11-05T11:42:34.550Z,7.70
2022-11-05T11:45:06.322Z,8.07
2022-11-05T11:47:33.277Z,7.28
2022-11-05T11:50:01.345Z,6.82
2022-11-05T11:52:33.433Z,7.53
2022-11-05T11:55:11.962Z,8.20
2022-11-05T11:57:50.980Z,6.50
2022-11-05T12:00:18.792Z,6.40
2022-11-05T12:03:10.321Z,7.22
2022-11-05T12:05:55.382Z,7.10
2022-11-05T12:09:12.213Z,8.52
2022-11-05T12:11:53.959Z,6.15
2022-11-05T12:14:33.517Z,7.25
2022-11-05T12:17:21.456Z,6.88
2022-11-05T12:19:50.951Z,7.32
2022-11-05T12:22:49.332Z,7.65
2022-11-05T12:25:29.130Z,7.40
2022-11-05T12:28:04.432Z,7.93
2022-11-05T12:30:47.847Z,6.95
2022-11-05T12:33:26.573Z,7.43
2022-11-05T12:36:14.580Z,12.45
2022-11-05T12:38:55.960Z,7.95
2022-11-05T12:41:27.317Z,8.05
2022-11-05T12:44:24.260Z,7.30
2022-11-05T12:47:15.520Z,7.53
2022-11-05T12:50:05.692Z,7.93
2022-11-05T12:52:49.594Z,8.53
2022-11-05T12:55:27.968Z,7.78
2022-11-05T12:57:58.028Z,7.45
2022-11-05T13:00:26.779Z,7.93
2022-11-05T13:03:17.047Z,8.02
2022-11-05T13:05:50.706Z,7.03
2022-11-05T13:08:31.858Z,7.85
2022-11-05T13:13:31.697Z,6.75
2022-11-05T13:16:05.466Z,7.43
2022-11-05T13:18:44.283Z,7.10
2022-11-05T13:21:12.059Z,7.50
2022-11-05T13:23:50.235Z,7.60
2022-11-05T13:26:44.007Z,7.30
2022-11-05T13:29:33.482Z,7.90
2022-11-05T13:32:14.441Z,6.55
2022-11-05T13:34:41.407Z,6.30
2022-11-05T13:37:27.716Z,6.55
2022-11-05T13:39:57.862Z,5.97
2022-11-05T13:42:49.792Z,6.13
2022-11-05T13:45:39.070Z,6.00
2022-11-05T13:48:28.432Z,5.65
2022-11-05T13:51:07.994Z,5.93
2022-11-05T13:54:02.013Z,5.57
2022-11-05T13:56:42.030Z,6.25
2022-11-05T13:59:19.130Z,6.20
2022-11-05T14:03:00.583Z,6.20
2022-11-05T14:05:33.395Z,5.57
2022-11-05T14:08:02.205Z,5.93
2022-11-05T14:10:41.529Z,5.20
2022-11-05T14:13:19.025Z,5.50
2022-11-05T14:16:05.865Z,5.72
2022-11-05T14:18:37.627Z,5.63
2022-11-05T14:21:06.714Z,5.00
2022-11-05T14:23:40.902Z,4.90
2022-11-05T14:26:16.908Z,4.50
2022-11-05T14:28:46.104Z,4.80
2022-11-05T14:31:31.428Z,4.78
2022-11-05T14:34:10.649Z,5.20
2022-11-05T14:36:40.745Z,5.03
2022-11-05T14:39:26.455Z,5.63
2022-11-05T14:41:56.899Z,5.40
2022-11-05T14:44:24.726Z,4.30
2022-11-05T14:46:53.804Z,5.07
2022-11-05T14:49:28.285Z,5.25
2022-11-05T14:51:56.863Z,5.13
2022-11-05T14:54:35.210Z,5.10
2022-11-05T14:57:02.456Z,5.22
2022-11-05T14:59:28.841Z,5.85
2022-11-05T15:01:57.277Z,4.80
2022-11-05T15:04:29.437Z,6.82
2022-11-05T15:07:02.021Z,5.13
2022-11-05T15:09:46.607Z,5.60
2022-11-05T15:12:23.992Z,5.40
2022-11-05T15:14:53.683Z,5.38
2022-11-05T15:17:26.546Z,5.70
2022-11-05T15:19:53.442Z,5.60
2022-11-05T15:22:27.366Z,6.13
2022-11-05T15:24:54.839Z,5.90
2022-11-05T15:27:40.172Z,6.03
2022-11-05T15:30:24.786Z,7.28
2022-11-05T15:32:51.925Z,5.38
2022-11-05T15:35:18.484Z,5.72
2022-11-05T15:37:54.683Z,7.03
2022-11-05T15:40:29.201Z,6.20
2022-11-05T15:43:19.342Z,5.25
2022-11-05T15:46:04.241Z,5.85
2022-11-05T15:48:31.064Z,6.07
2022-11-05T15:50:57.715Z,6.55
2022-11-05T15:56:43.837Z,5.72
2022-11-05T15:59:19.058Z,5.18
2022-11-05T16:01:48.059Z,5.78
2022-11-05T16:04:23.833Z,6.72
2022-11-05T16:06:53.491Z,5.63
2022-11-05T16:09:23.855Z,5.82
2022-11-05T16:12:14.112Z,6.05
2022-11-05T16:14:41.642Z,5.50
2022-11-05T16:17:19.530Z,5.28
2022-11-05T16:19:46.936Z,5.75
2022-11-05T16:22:13.720Z,6.80
2022-11-05T16:24:40.159Z,6.25
2022-11-05T16:27:07.056Z,5.65
2022-11-05T16:29:41.207Z,5.63
2022-11-05T16:32:17.315Z,5.70
2022-11-05T16:34:49.361Z,5.90
2022-11-05T16:37:17.529Z,5.68
2022-11-05T16:39:43.924Z,5.78
2022-11-05T16:42:22.795Z,4.93
2022-11-05T16:44:53.241Z,7.60
2022-11-05T16:47:20.475Z,5.72
2022-11-05T16:49:50.291Z,5.47
2022-11-05T16:52:16.712Z,6.38
2022-11-05T16:54:43.252Z,6.38
2022-11-05T16:57:30.750Z,5.35
2022-11-05T16:59:59.021Z,11.63
2022-11-05T17:02:26.086Z,5.85
2022-11-05T17:04:52.610Z,6.00
2022-11-05T17:07:19.064Z,5.70
2022-11-05T17:09:45.437Z,5.40
2022-11-05T17:12:12.227Z,6.05
2022-11-05T17:14:39.042Z,5.90
2022-11-05T17:17:05.861Z,5.57
2022-11-05T17:19:32.571Z,7.00
2022-11-05T17:21:59.001Z,5.85
2022-11-05T17:24:25.385Z,5.68
2022-11-05T17:26:51.845Z,5.88
2022-11-05T17:29:18.279Z,6.03
2022-11-05T17:31:44.718Z,5.53
2022-11-05T17:34:11.165Z,5.32
2022-11-05T17:36:37.571Z,6.28
2022-11-05T17:39:04.181Z,6.32
2022-11-05T17:41:30.983Z,5.85
2022-11-05T17:43:57.633Z,5.88
2022-11-05T17:46:24.254Z,5.60
2022-11-05T17:48:50.696Z,5.50
2022-11-05T17:51:19.341Z,5.85
2022-11-05T17:53:48.630Z,5.60
2022-11-05T17:56:27.228Z,5.38
2022-11-05T17:58:56.263Z,6.05
2022-11-05T18:01:26.722Z,6.72
2022-11-05T18:03:54.399Z,6.10
2022-11-05T18:06:21.760Z,5.65
2022-11-05T18:08:48.899Z,5.65
2022-11-05T18:11:16.115Z,5.72
2022-11-05T18:13:42.913Z,5.90
2022-11-05T18:16:10.314Z,5.32
2022-11-05T18:18:37.310Z,5.35
2022-11-05T18:21:04.649Z,5.90
2022-11-05T18:23:31.474Z,5.22
2022-11-05T18:25:58.581Z,5.50
2022-11-05T18:28:26.000Z,6.20
2022-11-05T18:30:53.294Z,5.75
2022-11-05T18:33:20.474Z,6.20
2022-11-05T18:35:47.823Z,5.53
2022-11-05T18:38:15.434Z,5.95
2022-11-05T18:40:42.362Z,5.72
2022-11-05T18:43:09.995Z,5.32
2022-11-05T18:45:37.536Z,6.63
2022-11-05T18:48:04.484Z,6.43
2022-11-05T18:50:31.775Z,6.22
2022-11-05T18:52:59.164Z,5.90
2022-11-05T18:55:26.417Z,5.60
2022-11-05T18:57:53.853Z,6.50
2022-11-05T19:00:21.355Z,6.25
2022-11-05T19:02:49.009Z,5.68
2022-11-05T19:05:28.954Z,5.93
2022-11-05T19:07:56.437Z,6.60
2022-11-05T19:10:22.858Z,7.10
2022-11-05T19:12:49.325Z,7.18
2022-11-05T19:15:15.756Z,6.63
2022-11-05T19:17:42.708Z,7.55
2022-11-05T19:20:09.412Z,6.82
2022-11-05T19:22:35.921Z,6.93
2022-11-05T19:25:02.350Z,6.57
2022-11-05T19:27:28.983Z,6.97
2022-11-05T19:29:55.404Z,7.30
2022-11-05T19:32:21.839Z,7.40
2022-11-05T19:34:48.303Z,6.03
2022-11-05T19:37:14.719Z,6.50
2022-11-05T19:39:41.189Z,6.60
2022-11-05T19:42:07.574Z,6.95
2022-11-05T19:44:34.037Z,6.47
2022-11-05T19:47:00.488Z,5.93
2022-11-05T19:49:28.360Z,7.03
2022-11-05T19:51:54.904Z,7.75
2022-11-05T19:54:21.478Z,7.88
2022-11-05T19:56:49.663Z,8.07
2022-11-05T19:59:16.043Z,6.90
2022-11-05T20:01:42.527Z,7.57
2022-11-05T20:04:09.676Z,7.30
2022-11-05T20:06:38.806Z,7.10
2022-11-05T20:09:21.201Z,8.27
2022-11-05T20:11:49.693Z,8.55
2022-11-05T20:14:16.332Z,8.30
2022-11-05T20:16:43.572Z,7.28
2022-11-05T20:19:14.640Z,9.00
2022-11-05T20:24:08.272Z,8.90
2022-11-05T20:26:34.959Z,9.23
2022-11-05T20:29:01.384Z,8.40
2022-11-05T20:31:27.876Z,8.38
2022-11-05T20:33:54.447Z,9.05
2022-11-05T20:36:23.406Z,9.13
2022-11-05T20:38:51.394Z,9.48
2022-11-05T20:41:18.089Z,9.27
2022-11-05T20:43:45.010Z,8.13
2022-11-05T20:46:13.593Z,8.63
2022-11-05T20:48:40.947Z,8.63
2022-11-05T20:51:15.073Z,9.07
2022-11-05T20:53:41.976Z,8.27
2022-11-05T20:56:09.256Z,8.88
2022-11-05T20:58:37.181Z,9.55
2022-11-05T21:01:05.152Z,9.82
2022-11-05T21:03:31.667Z,8.23
2022-11-05T21:05:59.903Z,8.57
2022-11-05T21:08:27.603Z,8.27
2022-11-05T21:10:54.746Z,8.57
2022-11-05T21:13:21.510Z,9.27
2022-11-05T21:15:56.411Z,9.02
2022-11-05T21:18:26.242Z,8.43
2022-11-05T21:20:53.965Z,8.73
2022-11-05T21:23:20.424Z,8.07
2022-11-05T21:25:47.296Z,6.78
2022-11-05T21:28:15.960Z,9.02
2022-11-05T21:30:46.083Z,8.18
2022-11-05T21:33:13.791Z,8.32
2022-11-05T21:35:45.579Z,7.63
2022-11-05T21:38:13.506Z,8.45
2022-11-05T21:40:40.376Z,7.65
2022-11-05T21:43:07.378Z,8.30
2022-11-05T21:45:34.085Z,7.95
2022-11-05T21:48:00.554Z,7.68
2022-11-05T21:50:45.528Z,7.68
2022-11-05T21:53:32.697Z,7.38
2022-11-05T21:56:17.769Z,7.82
2022-11-05T21:59:02.742Z,7.20
2022-11-05T22:01:29.361Z,7.90
2022-11-05T22:04:01.755Z,7.93
2022-11-05T22:06:32.634Z,7.28
2022-11-05T22:08:59.066Z,7.40
2022-11-05T22:11:25.443Z,7.28
2022-11-05T22:13:52.896Z,8.32
2022-11-05T22:16:19.285Z,7.90
2022-11-05T22:18:45.679Z,7.57
2022-11-05T22:21:17.526Z,7.57
2022-11-05T22:23:44.347Z,7.78
2022-11-05T22:26:10.791Z,6.57
2022-11-05T22:28:37.220Z,7.60
2022-11-05T22:31:03.601Z,6.97
2022-11-05T22:33:31.300Z,5.40
2022-11-05T22:35:57.685Z,6.97
2022-11-05T22:38:24.071Z,6.13
2022-11-05T22:40:50.431Z,7.38
2022-11-05T22:43:16.826Z,6.90
2022-11-05T22:45:43.764Z,6.80
2022-11-05T22:48:10.523Z,5.20
2022-11-05T22:50:37.178Z,6.82
2022-11-05T22:53:03.670Z,6.25
2022-11-05T22:55:30.246Z,6.80
2022-11-05T22:57:56.667Z,7.20
2022-11-05T23:00:34.400Z,6.70
2022-11-05T23:03:02.624Z,6.35
2022-11-05T23:05:29.263Z,7.18
2022-11-05T23:08:14.810Z,6.22
2022-11-05T23:10:59.765Z,6.13
2022-11-05T23:13:26.360Z,6.88
2022-11-05T23:16:11.308Z,6.85
2022-11-05T23:18:56.374Z,6.50
2022-11-05T23:21:41.471Z,6.28
2022-11-05T23:24:08.263Z,6.13
2022-11-05T23:26:50.953Z,5.53
2022-11-05T23:29:22.801Z,5.35
2022-11-05T23:32:08.880Z,7.05
2022-11-05T23:34:35.293Z,6.47
2022-11-05T23:37:20.134Z,6.78
2022-11-05T23:39:46.534Z,6.82
2022-11-05T23:42:31.551Z,7.10
2022-11-05T23:45:16.230Z,8.05
2022-11-05T23:48:01.712Z,7.00
2022-11-05T23:50:28.599Z,7.78
2022-11-05T23:52:55.647Z,7.63
2022-11-05T23:55:23.002Z,7.25
2022-11-05T23:57:49.692Z,7.18
